Time;durP1;ratioP1;P1;durP2;ratioP2;P2;SDS_P1;SDS_P2;PMS_P1;PMS_P2;Temp;Humidity;BMP_temperature;BMP_pressure;BME280_temperature;BME280_humidity;BME280_pressure;Samples;Min_cycle;Max_cycle;Signal;HPM_P1;HPM_P2
2022/07/28 00:01:55;;;;;;;4.22;1.70;;;;;;;;;;5019969;28;20799;-84
2022/07/28 00:04:23;;;;;;;2.95;2.00;;;;;;;;;;5038256;28;20712;-81
2022/07/28 00:06:49;;;;;;;4.10;2.05;;;;;;;;;;5040695;28;20423;-81
2022/07/28 00:09:16;;;;;;;5.05;1.80;;;;;;;;;;5020696;28;20478;-83
2022/07/28 00:11:42;;;;;;;3.53;1.95;;;;;;;;;;5036431;28;20434;-85
2022/07/28 00:14:10;;;;;;;4.07;2.10;;;;;;;;;;5016686;28;20423;-83
2022/07/28 00:16:37;;;;;;;2.70;1.90;;;;;;;;;;5033510;28;20791;-83
2022/07/28 00:19:04;;;;;;;3.75;2.10;;;;;;;;;;5035322;28;20427;-81
2022/07/28 00:21:32;;;;;;;4.45;2.20;;;;;;;;;;5039368;28;20483;-83
2022/07/28 00:23:59;;;;;;;7.20;2.60;;;;;;;;;;5035486;28;20425;-81
2022/07/28 00:26:25;;;;;;;2.70;1.63;;;;;;;;;;5039905;28;20429;-81
2022/07/28 00:28:51;;;;;;;2.70;1.70;;;;;;;;;;5018631;28;20427;-81
2022/07/28 00:31:18;;;;;;;4.95;2.00;;;;;;;;;;5039292;28;20434;-81
2022/07/28 00:33:44;;;;;;;3.70;1.60;;;;;;;;;;5006347;28;20417;-80
2022/07/28 00:36:12;;;;;;;3.80;1.60;;;;;;;;;;5039657;28;20772;-80
2022/07/28 00:38:42;;;;;;;4.22;1.60;;;;;;;;;;5038157;28;20421;-82
2022/07/28 00:41:11;;;;;;;3.53;2.03;;;;;;;;;;5036637;28;20435;-80
2022/07/28 00:43:38;;;;;;;5.95;2.00;;;;;;;;;;5030847;28;20426;-81
2022/07/28 00:46:04;;;;;;;4.10;2.20;;;;;;;;;;5020046;28;20939;-81
2022/07/28 00:48:31;;;;;;;4.35;1.80;;;;;;;;;;5034963;28;20415;-80
2022/07/28 00:50:57;;;;;;;4.18;1.83;;;;;;;;;;5036970;28;20429;-82
2022/07/28 00:53:26;;;;;;;3.70;2.20;;;;;;;;;;5034759;28;20422;-81
2022/07/28 00:55:54;;;;;;;3.25;1.98;;;;;;;;;;5039899;28;20426;-81
2022/07/28 00:58:22;;;;;;;6.50;2.40;;;;;;;;;;5034116;28;20527;-81
2022/07/28 01:00:49;;;;;;;4.53;2.20;;;;;;;;;;5036143;28;20437;-82
2022/07/28 01:03:15;;;;;;;3.95;2.00;;;;;;;;;;5016524;28;20419;-82
2022/07/28 01:05:45;;;;;;;3.17;1.90;;;;;;;;;;5035728;28;20435;-83
2022/07/28 01:08:16;;;;;;;4.20;1.90;;;;;;;;;;5037512;28;20413;-82
2022/07/28 01:10:45;;;;;;;3.42;2.00;;;;;;;;;;5036093;28;20967;-86
2022/07/28 01:13:14;;;;;;;4.80;2.20;;;;;;;;;;5034323;28;20483;-84
2022/07/28 01:15:44;;;;;;;2.28;1.90;;;;;;;;;;5038104;28;20429;-85
2022/07/28 01:18:15;;;;;;;3.08;1.95;;;;;;;;;;5033268;28;20421;-84
2022/07/28 01:20:43;;;;;;;3.58;2.30;;;;;;;;;;5037090;28;20958;-83
2022/07/28 01:23:26;;;;;;;5.50;2.60;;;;;;;;;;5039072;28;20427;-82
2022/07/28 01:26:01;;;;;;;3.80;2.33;;;;;;;;;;5035840;28;20431;-84
2022/07/28 01:28:44;;;;;;;7.00;2.83;;;;;;;;;;5034843;28;20436;-82
2022/07/28 01:31:15;;;;;;;4.85;2.85;;;;;;;;;;5038768;28;20457;-85
2022/07/28 01:33:42;;;;;;;4.55;2.42;;;;;;;;;;5023070;28;20485;-82
2022/07/28 01:36:11;;;;;;;2.60;2.10;;;;;;;;;;5042293;28;20446;-83
2022/07/28 01:38:38;;;;;;;7.95;2.90;;;;;;;;;;5042366;28;20425;-82
2022/07/28 01:41:07;;;;;;;5.67;2.80;;;;;;;;;;5039700;28;20438;-82
2022/07/28 01:43:36;;;;;;;5.93;2.60;;;;;;;;;;5018228;28;20434;-80
2022/07/28 01:46:04;;;;;;;6.25;2.65;;;;;;;;;;5039192;28;21177;-87
2022/07/28 01:48:32;;;;;;;4.43;2.60;;;;;;;;;;5041611;28;20425;-83
2022/07/28 01:51:00;;;;;;;4.23;2.80;;;;;;;;;;5038462;28;20440;-83
2022/07/28 01:53:27;;;;;;;5.07;2.40;;;;;;;;;;5024394;28;20504;-82
2022/07/28 01:55:54;;;;;;;5.53;2.90;;;;;;;;;;5037814;28;20428;-84
2022/07/28 01:58:23;;;;;;;5.32;2.80;;;;;;;;;;5042270;28;20430;-81
2022/07/28 02:00:50;;;;;;;5.63;2.47;;;;;;;;;;5039248;28;20858;-82
2022/07/28 02:03:17;;;;;;;6.95;3.00;;;;;;;;;;5037233;28;20441;-80
2022/07/28 02:05:45;;;;;;;7.18;2.80;;;;;;;;;;5039629;28;20460;-80
2022/07/28 02:08:12;;;;;;;4.68;2.50;;;;;;;;;;5041862;28;20419;-81
2022/07/28 02:10:41;;;;;;;5.28;2.53;;;;;;;;;;5038248;28;20816;-82
2022/07/28 02:13:08;;;;;;;5.20;2.92;;;;;;;;;;5043621;28;20409;-81
2022/07/28 02:15:35;;;;;;;4.88;3.33;;;;;;;;;;5046022;28;20414;-80
2022/07/28 02:18:02;;;;;;;4.63;2.70;;;;;;;;;;5042294;28;20420;-82
2022/07/28 02:20:29;;;;;;;5.15;3.10;;;;;;;;;;5040444;28;20437;-83
2022/07/28 02:22:57;;;;;;;7.15;2.78;;;;;;;;;;5041325;28;20440;-82
2022/07/28 02:25:24;;;;;;;6.97;3.17;;;;;;;;;;5012810;28;21002;-82
2022/07/28 02:27:57;;;;;;;8.60;3.40;;;;;;;;;;5021898;28;20427;-81
2022/07/28 02:30:28;;;;;;;5.78;3.05;;;;;;;;;;5040480;28;20445;-81
2022/07/28 02:32:55;;;;;;;6.72;3.10;;;;;;;;;;5042333;28;20414;-81
2022/07/28 02:35:24;;;;;;;5.13;2.80;;;;;;;;;;5037807;28;20481;-81
2022/07/28 02:37:53;;;;;;;5.28;3.25;;;;;;;;;;5039962;28;20433;-81
2022/07/28 02:40:21;;;;;;;4.68;3.00;;;;;;;;;;5040228;28;20438;-81
2022/07/28 02:42:49;;;;;;;5.78;2.92;;;;;;;;;;5038089;28;20437;-81
2022/07/28 02:45:17;;;;;;;3.30;2.78;;;;;;;;;;5039712;28;20511;-80
2022/07/28 02:47:46;;;;;;;4.53;3.30;;;;;;;;;;5042906;28;20427;-80
2022/07/28 02:50:14;;;;;;;7.63;3.10;;;;;;;;;;5021040;28;20431;-81
2022/07/28 02:52:41;;;;;;;9.45;3.75;;;;;;;;;;5041574;28;20811;-84
2022/07/28 02:55:10;;;;;;;5.38;3.33;;;;;;;;;;5038753;28;20429;-82
2022/07/28 02:57:40;;;;;;;5.75;3.00;;;;;;;;;;5031049;28;20427;-83
2022/07/28 03:00:07;;;;;;;6.45;3.10;;;;;;;;;;5038218;28;20432;-83
2022/07/28 03:02:35;;;;;;;5.70;3.28;;;;;;;;;;5038612;28;20439;-80
2022/07/28 03:05:02;;;;;;;4.90;2.60;;;;;;;;;;5035850;28;20479;-83
2022/07/28 03:07:29;;;;;;;3.40;2.50;;;;;;;;;;5040747;28;20433;-81
2022/07/28 03:09:56;;;;;;;6.23;2.63;;;;;;;;;;5040542;28;20429;-82
2022/07/28 03:12:23;;;;;;;4.47;2.60;;;;;;;;;;5041085;28;20446;-83
2022/07/28 03:14:51;;;;;;;5.28;3.20;;;;;;;;;;5038021;28;20421;-84
2022/07/28 03:17:18;;;;;;;4.60;2.90;;;;;;;;;;5039029;28;20440;-81
2022/07/28 03:19:44;;;;;;;5.45;3.10;;;;;;;;;;5039053;28;20499;-82
2022/07/28 03:22:11;;;;;;;3.60;2.70;;;;;;;;;;5039672;28;20435;-82
2022/07/28 03:24:38;;;;;;;5.05;2.70;;;;;;;;;;5034417;28;20431;-85
2022/07/28 03:27:08;;;;;;;5.45;2.97;;;;;;;;;;5039040;28;20924;-84
2022/07/28 03:29:35;;;;;;;6.82;2.88;;;;;;;;;;4992791;28;20944;-82
2022/07/28 03:32:03;;;;;;;4.32;3.13;;;;;;;;;;5041416;28;20433;-80
2022/07/28 03:34:29;;;;;;;4.35;2.80;;;;;;;;;;5031866;28;20434;-83
2022/07/28 03:36:59;;;;;;;5.10;3.10;;;;;;;;;;5038158;28;20428;-83
2022/07/28 03:39:26;;;;;;;4.63;2.70;;;;;;;;;;5038912;28;20429;-83
2022/07/28 03:41:54;;;;;;;7.03;3.47;;;;;;;;;;5039967;28;20898;-82
2022/07/28 03:44:22;;;;;;;6.70;3.70;;;;;;;;;;5006183;28;20505;-80
2022/07/28 03:46:48;;;;;;;6.38;3.60;;;;;;;;;;5040284;28;20924;-81
2022/07/28 03:49:16;;;;;;;6.63;3.60;;;;;;;;;;5018574;28;20428;-81
2022/07/28 03:51:42;;;;;;;4.55;3.08;;;;;;;;;;5040879;28;20433;-81
2022/07/28 03:54:09;;;;;;;5.97;3.40;;;;;;;;;;5034851;28;20417;-81
2022/07/28 03:56:36;;;;;;;7.43;3.45;;;;;;;;;;5021809;28;20431;-80
2022/07/28 03:59:02;;;;;;;7.53;3.50;;;;;;;;;;5039706;28;20806;-81
2022/07/28 04:01:30;;;;;;;5.00;3.60;;;;;;;;;;5031948;28;20434;-81
2022/07/28 04:03:56;;;;;;;5.30;2.80;;;;;;;;;;5036836;28;20439;-80
2022/07/28 04:06:24;;;;;;;6.40;3.00;;;;;;;;;;5038796;28;20441;-81
2022/07/28 04:08:50;;;;;;;4.30;3.10;;;;;;;;;;5032965;28;20458;-82
2022/07/28 04:11:16;;;;;;;5.50;3.15;;;;;;;;;;5036726;28;20431;-83
2022/07/28 04:13:44;;;;;;;7.85;3.13;;;;;;;;;;5018619;28;20937;-82
2022/07/28 04:16:11;;;;;;;5.32;3.30;;;;;;;;;;5038979;28;20430;-83
2022/07/28 04:18:37;;;;;;;5.50;3.20;;;;;;;;;;5038615;28;20423;-82
2022/07/28 04:21:04;;;;;;;5.43;2.80;;;;;;;;;;5038512;28;20452;-83
2022/07/28 04:23:33;;;;;;;7.40;3.30;;;;;;;;;;5039611;28;20915;-82
2022/07/28 04:26:00;;;;;;;6.95;4.22;;;;;;;;;;5037263;28;20442;-82
2022/07/28 04:28:26;;;;;;;8.52;3.92;;;;;;;;;;5035332;28;20424;-82
2022/07/28 04:30:54;;;;;;;6.80;3.92;;;;;;;;;;5032042;28;20799;-82
2022/07/28 04:33:20;;;;;;;7.78;4.20;;;;;;;;;;5032583;28;20419;-84
2022/07/28 04:35:46;;;;;;;6.95;4.07;;;;;;;;;;5040037;28;20414;-80
2022/07/28 04:38:16;;;;;;;6.35;3.80;;;;;;;;;;5032931;28;20615;-82
2022/07/28 04:40:44;;;;;;;5.10;3.90;;;;;;;;;;5040431;28;20910;-82
2022/07/28 04:43:10;;;;;;;5.65;4.10;;;;;;;;;;5038332;28;20413;-84
2022/07/28 04:45:37;;;;;;;6.50;4.00;;;;;;;;;;5036051;28;20436;-82
2022/07/28 04:48:03;;;;;;;4.67;3.50;;;;;;;;;;5038608;28;20950;-83
2022/07/28 04:50:30;;;;;;;4.63;2.80;;;;;;;;;;5032119;28;20435;-81
2022/07/28 04:52:58;;;;;;;6.45;3.70;;;;;;;;;;5009118;28;20433;-80
2022/07/28 04:55:25;;;;;;;9.40;4.10;;;;;;;;;;5039732;28;20431;-80
2022/07/28 04:57:53;;;;;;;8.35;5.45;;;;;;;;;;5006851;28;20895;-80
2022/07/28 05:00:20;;;;;;;6.85;4.22;;;;;;;;;;5035197;28;20437;-80
2022/07/28 05:02:47;;;;;;;4.88;4.00;;;;;;;;;;5039947;28;20480;-81
2022/07/28 05:05:14;;;;;;;6.90;4.10;;;;;;;;;;5033250;28;20461;-82
2022/07/28 05:07:40;;;;;;;7.72;4.40;;;;;;;;;;5047121;28;20425;-81
2022/07/28 05:10:08;;;;;;;7.47;3.53;;;;;;;;;;5041070;28;20424;-80
2022/07/28 05:12:34;;;;;;;5.18;3.95;;;;;;;;;;5045737;28;20407;-83
2022/07/28 05:15:02;;;;;;;5.40;3.90;;;;;;;;;;5044709;28;20437;-80
2022/07/28 05:17:28;;;;;;;6.75;3.80;;;;;;;;;;5044928;28;20430;-84
2022/07/28 05:19:55;;;;;;;7.80;4.10;;;;;;;;;;5038654;28;20423;-81
2022/07/28 05:22:21;;;;;;;4.72;3.67;;;;;;;;;;5044440;28;20939;-81
2022/07/28 05:24:51;;;;;;;4.93;3.10;;;;;;;;;;5034523;28;20424;-80
2022/07/28 05:27:17;;;;;;;4.80;3.33;;;;;;;;;;5041084;28;20427;-81
2022/07/28 05:29:44;;;;;;;5.72;3.50;;;;;;;;;;5040371;28;20921;-80
2022/07/28 05:32:12;;;;;;;5.85;3.70;;;;;;;;;;5038742;28;20816;-81
2022/07/28 05:34:38;;;;;;;9.05;4.70;;;;;;;;;;5037906;28;20421;-83
2022/07/28 05:37:04;;;;;;;9.55;6.10;;;;;;;;;;5043664;28;20426;-82
2022/07/28 05:39:32;;;;;;;7.40;5.55;;;;;;;;;;5047094;28;20418;-83
2022/07/28 05:42:00;;;;;;;9.25;6.55;;;;;;;;;;5048444;28;20413;-80
2022/07/28 05:44:27;;;;;;;13.13;8.50;;;;;;;;;;5046100;28;20433;-82
2022/07/28 05:46:53;;;;;;;11.25;6.10;;;;;;;;;;5045871;28;20511;-85
2022/07/28 05:49:22;;;;;;;13.25;7.82;;;;;;;;;;5043850;28;20429;-82
2022/07/28 05:51:48;;;;;;;11.32;6.90;;;;;;;;;;5024330;28;20424;-84
2022/07/28 05:54:15;;;;;;;7.63;5.85;;;;;;;;;;5042978;28;20434;-82
2022/07/28 05:56:41;;;;;;;8.95;6.70;;;;;;;;;;5046754;28;20418;-81
2022/07/28 05:59:09;;;;;;;10.35;5.93;;;;;;;;;;5046327;28;20791;-82
2022/07/28 06:01:37;;;;;;;5.88;4.72;;;;;;;;;;5012591;28;20409;-82
2022/07/28 06:04:03;;;;;;;9.48;5.55;;;;;;;;;;5036869;28;20431;-82
2022/07/28 06:06:31;;;;;;;9.40;5.30;;;;;;;;;;5044804;28;20432;-83
2022/07/28 06:08:58;;;;;;;9.20;5.70;;;;;;;;;;5045622;28;20419;-83
2022/07/28 06:11:24;;;;;;;9.13;5.40;;;;;;;;;;5028270;28;20415;-82
2022/07/28 06:13:51;;;;;;;9.57;5.40;;;;;;;;;;5045747;28;20762;-80
2022/07/28 06:16:19;;;;;;;9.50;4.50;;;;;;;;;;5044538;28;20429;-82
2022/07/28 06:18:45;;;;;;;6.28;3.40;;;;;;;;;;5043190;28;20419;-80
2022/07/28 06:21:12;;;;;;;6.88;3.65;;;;;;;;;;5045014;28;20465;-84
2022/07/28 06:23:40;;;;;;;5.10;2.90;;;;;;;;;;5046729;28;20421;-82
2022/07/28 06:26:07;;;;;;;5.77;2.80;;;;;;;;;;5015505;28;20922;-82
2022/07/28 06:28:33;;;;;;;8.00;2.65;;;;;;;;;;5044896;28;20428;-82
2022/07/28 06:31:00;;;;;;;6.90;2.90;;;;;;;;;;5028035;28;20413;-83
2022/07/28 06:33:26;;;;;;;4.63;2.35;;;;;;;;;;5043877;28;21013;-80
2022/07/28 06:35:52;;;;;;;6.30;2.80;;;;;;;;;;5044909;28;20870;-82
2022/07/28 06:38:20;;;;;;;4.77;2.43;;;;;;;;;;5043813;28;20431;-82
2022/07/28 06:40:47;;;;;;;8.02;2.78;;;;;;;;;;5046625;28;20414;-82
2022/07/28 06:43:14;;;;;;;5.97;3.00;;;;;;;;;;5026014;28;20425;-80
2022/07/28 06:45:40;;;;;;;5.35;2.53;;;;;;;;;;5046932;28;20413;-81
2022/07/28 06:48:07;;;;;;;6.43;2.80;;;;;;;;;;5012015;28;20415;-83
2022/07/28 06:50:34;;;;;;;4.68;2.65;;;;;;;;;;5044263;28;20424;-83
2022/07/28 06:53:00;;;;;;;5.80;3.00;;;;;;;;;;5045872;28;20792;-82
2022/07/28 06:55:26;;;;;;;6.30;3.00;;;;;;;;;;5042988;28;21019;-82
2022/07/28 06:57:56;;;;;;;4.93;3.00;;;;;;;;;;5045081;28;20409;-82
2022/07/28 07:00:22;;;;;;;2.75;2.35;;;;;;;;;;5042857;28;20425;-83
2022/07/28 07:02:49;;;;;;;4.57;2.80;;;;;;;;;;5044678;28;20425;-82
2022/07/28 07:05:15;;;;;;;2.90;2.53;;;;;;;;;;5042794;28;20446;-82
2022/07/28 07:07:42;;;;;;;6.20;2.92;;;;;;;;;;5043026;28;20434;-82
2022/07/28 07:10:08;;;;;;;5.40;2.90;;;;;;;;;;5042843;28;20522;-82
2022/07/28 07:12:36;;;;;;;4.15;3.03;;;;;;;;;;5043464;28;20957;-83
2022/07/28 07:15:04;;;;;;;4.30;2.63;;;;;;;;;;5044977;28;20427;-82
2022/07/28 07:17:31;;;;;;;6.10;2.22;;;;;;;;;;5044903;28;20414;-83
2022/07/28 07:19:57;;;;;;;4.80;2.80;;;;;;;;;;5041414;28;20427;-80
2022/07/28 07:22:23;;;;;;;7.57;2.90;;;;;;;;;;5044575;28;20413;-83
2022/07/28 07:24:50;;;;;;;6.25;3.50;;;;;;;;;;5043573;28;20426;-83
2022/07/28 07:27:16;;;;;;;6.50;3.50;;;;;;;;;;5027606;28;20440;-80
2022/07/28 07:29:43;;;;;;;7.85;3.13;;;;;;;;;;5039815;28;20422;-80
2022/07/28 07:32:11;;;;;;;7.15;3.13;;;;;;;;;;5027949;28;20467;-82
2022/07/28 07:34:38;;;;;;;5.95;3.17;;;;;;;;;;5043453;28;20425;-82
2022/07/28 07:37:05;;;;;;;5.90;2.90;;;;;;;;;;5038527;28;20423;-83
2022/07/28 07:39:31;;;;;;;5.35;3.00;;;;;;;;;;5038040;28;20454;-82
2022/07/28 07:41:58;;;;;;;6.57;3.13;;;;;;;;;;5043953;28;20436;-82
2022/07/28 07:44:24;;;;;;;5.97;3.20;;;;;;;;;;5044029;28;20421;-82
2022/07/28 07:46:51;;;;;;;7.05;2.95;;;;;;;;;;5043988;28;20444;-83
2022/07/28 07:49:18;;;;;;;4.72;2.67;;;;;;;;;;5041060;28;20431;-82
2022/07/28 07:51:44;;;;;;;5.85;2.80;;;;;;;;;;5044351;28;20442;-82
2022/07/28 07:54:11;;;;;;;6.28;3.00;;;;;;;;;;5038769;28;20435;-83
2022/07/28 07:56:37;;;;;;;4.70;2.70;;;;;;;;;;5043100;28;20424;-82
2022/07/28 07:59:04;;;;;;;6.43;3.40;;;;;;;;;;5042420;28;20446;-83
2022/07/28 08:01:31;;;;;;;4.40;2.40;;;;;;;;;;5042093;28;20487;-83
2022/07/28 08:03:59;;;;;;;4.63;2.38;;;;;;;;;;5041550;28;20421;-83
2022/07/28 08:06:27;;;;;;;4.45;2.22;;;;;;;;;;5013205;28;20497;-80
2022/07/28 08:08:55;;;;;;;3.90;1.80;;;;;;;;;;5045184;28;20840;-81
2022/07/28 08:11:21;;;;;;;4.70;2.10;;;;;;;;;;5043306;28;20436;-81
2022/07/28 08:13:48;;;;;;;5.72;2.10;;;;;;;;;;5024935;28;20484;-80
2022/07/28 08:16:14;;;;;;;3.90;1.70;;;;;;;;;;5044264;28;20431;-81
2022/07/28 08:18:40;;;;;;;5.47;1.70;;;;;;;;;;5043286;28;20500;-83
2022/07/28 08:21:07;;;;;;;4.68;1.70;;;;;;;;;;5042467;28;20443;-82
2022/07/28 08:23:35;;;;;;;3.30;1.50;;;;;;;;;;5044723;28;20427;-83
2022/07/28 08:26:03;;;;;;;3.10;1.70;;;;;;;;;;5044083;28;20795;-83
2022/07/28 08:28:30;;;;;;;2.08;1.20;;;;;;;;;;5007020;28;20417;-82
2022/07/28 08:30:56;;;;;;;2.78;1.42;;;;;;;;;;5038149;28;20425;-82
2022/07/28 08:33:23;;;;;;;3.60;1.30;;;;;;;;;;5036538;28;20420;-80
2022/07/28 08:35:49;;;;;;;2.15;1.30;;;;;;;;;;5025679;28;20438;-81
2022/07/28 08:38:17;;;;;;;4.38;1.40;;;;;;;;;;5044715;28;20424;-81
2022/07/28 08:40:45;;;;;;;2.67;1.15;;;;;;;;;;5010712;28;20544;-83
2022/07/28 08:43:15;;;;;;;2.55;1.40;;;;;;;;;;5042554;28;20419;-81
2022/07/28 08:45:43;;;;;;;5.40;1.73;;;;;;;;;;5043870;28;20516;-80
2022/07/28 08:48:10;;;;;;;6.00;1.83;;;;;;;;;;5040802;28;20425;-80
2022/07/28 08:50:38;;;;;;;4.10;1.60;;;;;;;;;;5040755;28;20439;-81
2022/07/28 08:53:04;;;;;;;4.38;1.60;;;;;;;;;;5043657;28;20915;-81
2022/07/28 08:55:31;;;;;;;4.77;1.23;;;;;;;;;;5043171;28;20430;-81
2022/07/28 08:57:59;;;;;;;4.68;1.80;;;;;;;;;;5036649;28;20430;-80
2022/07/28 09:00:26;;;;;;;4.80;1.80;;;;;;;;;;5044718;28;20415;-81
2022/07/28 09:02:54;;;;;;;4.40;1.30;;;;;;;;;;5030651;28;20417;-80
2022/07/28 09:05:21;;;;;;;4.90;1.60;;;;;;;;;;5029352;28;20435;-81
2022/07/28 09:07:49;;;;;;;4.40;1.60;;;;;;;;;;5042290;28;20434;-80
2022/07/28 09:10:16;;;;;;;3.70;1.60;;;;;;;;;;5041248;28;20442;-81
2022/07/28 09:12:42;;;;;;;2.60;1.40;;;;;;;;;;5043422;28;20415;-85
2022/07/28 09:15:12;;;;;;;5.10;1.73;;;;;;;;;;5043069;28;20431;-80
2022/07/28 09:17:38;;;;;;;4.65;1.45;;;;;;;;;;5042784;28;20415;-82
2022/07/28 09:20:07;;;;;;;3.35;1.60;;;;;;;;;;5043000;28;20462;-80
2022/07/28 09:22:34;;;;;;;2.58;1.30;;;;;;;;;;5041902;28;20439;-81
2022/07/28 09:25:02;;;;;;;3.90;1.60;;;;;;;;;;5044841;28;20425;-81
2022/07/28 09:27:34;;;;;;;3.20;1.30;;;;;;;;;;5023386;28;20429;-83
2022/07/28 09:30:01;;;;;;;2.83;1.30;;;;;;;;;;5041972;28;20451;-82
2022/07/28 09:32:30;;;;;;;4.88;1.50;;;;;;;;;;5040262;28;20423;-82
2022/07/28 09:34:56;;;;;;;5.28;1.90;;;;;;;;;;5040278;28;20482;-82
2022/07/28 09:37:24;;;;;;;3.20;1.15;;;;;;;;;;5040056;28;20939;-83
2022/07/28 09:39:51;;;;;;;5.55;1.80;;;;;;;;;;5021844;28;20409;-80
2022/07/28 09:42:18;;;;;;;3.60;1.50;;;;;;;;;;5039887;28;20942;-82
2022/07/28 09:44:44;;;;;;;2.63;1.30;;;;;;;;;;5038393;28;20427;-83
2022/07/28 09:47:23;;;;;;;4.70;1.30;;;;;;;;;;5042404;28;20438;-83
2022/07/28 09:49:51;;;;;;;2.37;1.10;;;;;;;;;;5008054;28;20440;-82
2022/07/28 09:52:27;;;;;;;4.20;1.48;;;;;;;;;;5044574;28;20421;-82
2022/07/28 09:54:59;;;;;;;3.97;1.30;;;;;;;;;;5045022;28;20428;-83
2022/07/28 09:57:26;;;;;;;4.70;1.30;;;;;;;;;;5044070;28;20926;-81
2022/07/28 09:59:53;;;;;;;2.58;1.10;;;;;;;;;;5038570;28;20532;-83
2022/07/28 10:02:23;;;;;;;3.50;1.58;;;;;;;;;;5040895;28;20985;-84
2022/07/28 10:04:52;;;;;;;4.10;1.42;;;;;;;;;;5041654;28;20425;-84
2022/07/28 10:07:18;;;;;;;2.83;1.20;;;;;;;;;;5044069;28;20429;-83
2022/07/28 10:09:56;;;;;;;4.45;1.30;;;;;;;;;;5043411;28;20421;-82
2022/07/28 10:12:23;;;;;;;2.30;1.45;;;;;;;;;;5025840;28;20455;-82
2022/07/28 10:14:51;;;;;;;2.40;1.05;;;;;;;;;;5044411;28;20419;-81
2022/07/28 10:17:28;;;;;;;2.40;1.15;;;;;;;;;;5043673;28;20418;-83
2022/07/28 10:19:57;;;;;;;3.67;1.70;;;;;;;;;;5043422;28;20481;-81
2022/07/28 10:22:25;;;;;;;3.00;1.20;;;;;;;;;;5046602;28;20461;-81
2022/07/28 10:24:52;;;;;;;3.38;1.30;;;;;;;;;;5046210;28;20425;-81
2022/07/28 10:27:20;;;;;;;2.33;1.30;;;;;;;;;;5048165;28;20431;-83
2022/07/28 10:29:47;;;;;;;2.67;1.45;;;;;;;;;;5045085;28;20818;-82
2022/07/28 10:32:13;;;;;;;2.38;1.13;;;;;;;;;;5044337;28;20448;-82
2022/07/28 10:34:44;;;;;;;3.67;1.30;;;;;;;;;;5026949;28;20433;-81
2022/07/28 10:37:17;;;;;;;3.53;1.58;;;;;;;;;;5044583;28;20434;-84
2022/07/28 10:39:47;;;;;;;4.80;1.50;;;;;;;;;;5046493;28;20434;-81
2022/07/28 10:42:15;;;;;;;2.63;1.42;;;;;;;;;;5027148;28;20438;-83
2022/07/28 10:44:42;;;;;;;3.17;1.30;;;;;;;;;;5028368;28;20413;-82
2022/07/28 10:47:09;;;;;;;4.18;1.40;;;;;;;;;;5044854;28;20421;-82
2022/07/28 10:49:35;;;;;;;3.90;1.45;;;;;;;;;;5023892;28;20473;-81
2022/07/28 10:52:02;;;;;;;3.40;1.40;;;;;;;;;;5044964;28;21878;-81
2022/07/28 10:54:34;;;;;;;1.50;1.13;;;;;;;;;;5043529;28;20421;-81
2022/07/28 10:57:01;;;;;;;3.47;1.30;;;;;;;;;;5045285;28;20938;-81
2022/07/28 10:59:36;;;;;;;3.92;1.15;;;;;;;;;;5043527;28;20428;-81
2022/07/28 11:02:02;;;;;;;1.80;1.25;;;;;;;;;;5040801;28;20439;-81
2022/07/28 11:04:50;;;;;;;1.70;1.20;;;;;;;;;;5042268;28;20436;-81
2022/07/28 11:07:17;;;;;;;3.72;1.50;;;;;;;;;;5042972;28;20489;-81
2022/07/28 11:09:46;;;;;;;2.25;1.13;;;;;;;;;;5042950;28;21171;-81
2022/07/28 11:12:14;;;;;;;2.63;1.20;;;;;;;;;;5043835;28;20431;-80
2022/07/28 11:14:41;;;;;;;3.53;1.20;;;;;;;;;;5027467;28;20453;-82
2022/07/28 11:17:17;;;;;;;2.63;1.35;;;;;;;;;;5044999;28;20894;-82
2022/07/28 11:19:52;;;;;;;2.67;1.30;;;;;;;;;;5041863;28;20920;-81
2022/07/28 11:22:23;;;;;;;2.40;1.30;;;;;;;;;;5043137;28;20447;-82
2022/07/28 11:25:08;;;;;;;3.05;1.38;;;;;;;;;;5022633;28;20524;-81
2022/07/28 11:27:50;;;;;;;3.00;1.17;;;;;;;;;;5045382;28;20413;-82
2022/07/28 11:30:31;;;;;;;2.00;1.17;;;;;;;;;;5039409;28;20427;-81
2022/07/28 11:32:59;;;;;;;1.70;1.10;;;;;;;;;;5043535;28;20429;-81
2022/07/28 11:35:26;;;;;;;1.27;1.10;;;;;;;;;;5043667;28;20947;-81
2022/07/28 11:38:11;;;;;;;3.38;1.30;;;;;;;;;;5044222;28;20448;-81
2022/07/28 11:40:39;;;;;;;2.50;1.17;;;;;;;;;;5041882;28;20429;-81
2022/07/28 11:43:28;;;;;;;2.00;1.10;;;;;;;;;;5044533;28;20526;-81
2022/07/28 11:46:21;;;;;;;3.78;1.10;;;;;;;;;;5044639;28;20428;-81
2022/07/28 11:49:09;;;;;;;3.25;1.42;;;;;;;;;;5043199;28;20437;-81
2022/07/28 11:51:36;;;;;;;2.30;1.10;;;;;;;;;;5041661;28;20429;-81
2022/07/28 11:54:02;;;;;;;1.83;1.00;;;;;;;;;;5011688;28;20415;-81
2022/07/28 11:56:34;;;;;;;3.17;1.17;;;;;;;;;;5024863;28;20425;-82
2022/07/28 11:59:02;;;;;;;2.08;1.10;;;;;;;;;;5040691;28;20486;-83
2022/07/28 12:01:29;;;;;;;2.13;0.90;;;;;;;;;;5038209;28;20439;-83
2022/07/28 12:03:58;;;;;;;1.90;1.23;;;;;;;;;;5038855;28;20457;-83
2022/07/28 12:06:25;;;;;;;2.90;1.23;;;;;;;;;;5041547;28;20422;-83
2022/07/28 12:08:51;;;;;;;2.20;1.00;;;;;;;;;;5040668;28;20501;-83
2022/07/28 12:11:18;;;;;;;3.03;1.15;;;;;;;;;;5041494;28;20413;-84
2022/07/28 12:13:45;;;;;;;1.20;1.10;;;;;;;;;;5037910;28;20501;-83
2022/07/28 12:16:11;;;;;;;4.60;1.10;;;;;;;;;;5039035;28;20444;-84
2022/07/28 12:18:38;;;;;;;5.38;1.40;;;;;;;;;;5038906;28;20790;-85
2022/07/28 12:21:06;;;;;;;3.10;1.55;;;;;;;;;;5040750;28;20470;-81
2022/07/28 12:23:36;;;;;;;3.03;1.20;;;;;;;;;;5038525;28;20418;-82
2022/07/28 12:26:03;;;;;;;2.30;1.30;;;;;;;;;;5037226;28;20529;-82
2022/07/28 12:28:32;;;;;;;3.03;1.10;;;;;;;;;;5040987;28;20413;-82
2022/07/28 12:31:09;;;;;;;1.83;1.30;;;;;;;;;;5042661;28;20419;-82
2022/07/28 12:33:36;;;;;;;4.37;1.60;;;;;;;;;;5042598;28;20916;-82
2022/07/28 12:36:03;;;;;;;2.20;1.10;;;;;;;;;;5041622;28;20440;-82
2022/07/28 12:38:31;;;;;;;3.42;1.15;;;;;;;;;;5023848;28;20928;-83
2022/07/28 12:40:58;;;;;;;2.97;1.30;;;;;;;;;;5042691;28;20436;-83
2022/07/28 12:43:28;;;;;;;3.28;1.35;;;;;;;;;;5040167;28;20504;-82
2022/07/28 12:45:55;;;;;;;1.60;1.08;;;;;;;;;;5040124;28;20437;-83
2022/07/28 12:48:22;;;;;;;3.63;1.10;;;;;;;;;;5041783;28;20419;-82
2022/07/28 12:50:50;;;;;;;2.15;1.50;;;;;;;;;;5021095;28;20924;-81
2022/07/28 12:53:20;;;;;;;1.85;1.20;;;;;;;;;;5043149;28;20418;-82
2022/07/28 12:55:47;;;;;;;3.20;1.33;;;;;;;;;;5041536;28;20930;-82
2022/07/28 12:58:25;;;;;;;2.83;1.00;;;;;;;;;;5041618;28;20980;-85
2022/07/28 13:00:52;;;;;;;2.30;1.30;;;;;;;;;;5041588;28;20499;-80
2022/07/28 13:03:24;;;;;;;1.60;1.15;;;;;;;;;;5044122;28;20968;-81
2022/07/28 13:06:02;;;;;;;1.73;1.25;;;;;;;;;;5010662;28;20420;-81
2022/07/28 13:08:37;;;;;;;3.00;1.10;;;;;;;;;;5038601;28;20439;-81
2022/07/28 13:11:05;;;;;;;1.90;1.10;;;;;;;;;;5043278;28;20434;-81
2022/07/28 13:13:44;;;;;;;2.90;1.10;;;;;;;;;;5040718;28;20451;-79
2022/07/28 13:16:10;;;;;;;2.50;1.10;;;;;;;;;;5041637;28;20536;-83
2022/07/28 13:18:40;;;;;;;3.47;1.20;;;;;;;;;;5041848;28;20414;-80
2022/07/28 13:21:07;;;;;;;1.13;1.00;;;;;;;;;;5039744;28;20432;-82
2022/07/28 13:23:33;;;;;;;1.98;1.20;;;;;;;;;;5043885;28;20979;-81
2022/07/28 13:25:59;;;;;;;4.50;1.20;;;;;;;;;;5042485;28;20436;-81
2022/07/28 13:28:27;;;;;;;3.45;1.20;;;;;;;;;;5045928;28;20424;-81
2022/07/28 13:30:54;;;;;;;3.50;1.13;;;;;;;;;;5042870;28;20953;-83
2022/07/28 13:33:21;;;;;;;2.78;1.10;;;;;;;;;;5046241;28;20421;-80
2022/07/28 13:35:49;;;;;;;1.77;1.13;;;;;;;;;;5045762;28;20449;-81
2022/07/28 13:38:15;;;;;;;2.50;1.20;;;;;;;;;;5045557;28;20427;-82
2022/07/28 13:40:42;;;;;;;2.58;1.10;;;;;;;;;;5047055;28;20535;-80
2022/07/28 13:43:08;;;;;;;2.97;1.20;;;;;;;;;;5010268;28;20413;-83
2022/07/28 13:45:36;;;;;;;1.77;1.08;;;;;;;;;;5045482;28;20921;-81
2022/07/28 13:48:03;;;;;;;2.90;1.23;;;;;;;;;;5045151;28;20508;-81
2022/07/28 13:50:29;;;;;;;2.13;1.30;;;;;;;;;;5045928;28;20435;-81
2022/07/28 13:52:56;;;;;;;2.60;1.13;;;;;;;;;;5044438;28;20808;-81
2022/07/28 13:55:22;;;;;;;2.70;1.20;;;;;;;;;;5044969;28;20429;-83
2022/07/28 13:57:49;;;;;;;2.08;1.10;;;;;;;;;;5045395;28;20840;-80
2022/07/28 14:00:18;;;;;;;2.40;1.27;;;;;;;;;;5044007;28;20437;-81
2022/07/28 14:02:47;;;;;;;2.10;0.95;;;;;;;;;;5045741;28;20440;-81
2022/07/28 14:05:13;;;;;;;1.92;1.25;;;;;;;;;;5045153;28;20517;-82
2022/07/28 14:07:40;;;;;;;2.35;1.10;;;;;;;;;;5046345;28;20414;-82
2022/07/28 14:10:07;;;;;;;3.00;1.30;;;;;;;;;;5040938;28;20432;-81
2022/07/28 14:12:33;;;;;;;1.80;1.15;;;;;;;;;;5045554;28;20430;-80
2022/07/28 14:15:00;;;;;;;2.35;1.30;;;;;;;;;;5046260;28;20414;-81
2022/07/28 14:17:26;;;;;;;3.53;1.38;;;;;;;;;;5014739;28;20830;-81
2022/07/28 14:19:54;;;;;;;2.20;1.10;;;;;;;;;;5044401;28;20423;-81
2022/07/28 14:22:20;;;;;;;4.55;1.20;;;;;;;;;;5046497;28;20902;-82
2022/07/28 14:24:47;;;;;;;2.50;1.10;;;;;;;;;;5040564;28;20431;-81
2022/07/28 14:27:14;;;;;;;2.30;1.20;;;;;;;;;;5046827;28;20901;-81
2022/07/28 14:29:42;;;;;;;2.60;1.30;;;;;;;;;;5042499;28;20450;-82
2022/07/28 14:32:08;;;;;;;4.10;1.50;;;;;;;;;;5046651;28;20452;-84
2022/07/28 14:34:34;;;;;;;1.67;1.00;;;;;;;;;;5043687;28;20441;-80
2022/07/28 14:37:03;;;;;;;1.83;1.00;;;;;;;;;;5027333;28;20469;-82
2022/07/28 14:39:29;;;;;;;3.30;1.40;;;;;;;;;;5012215;28;20407;-81
2022/07/28 14:41:56;;;;;;;3.17;1.30;;;;;;;;;;5043806;28;20429;-82
2022/07/28 14:44:22;;;;;;;2.70;1.20;;;;;;;;;;5039808;28;20423;-83
2022/07/28 14:46:49;;;;;;;2.38;1.20;;;;;;;;;;5043836;28;20429;-83
2022/07/28 14:49:15;;;;;;;2.40;1.30;;;;;;;;;;5042479;28;20425;-80